LEPA/PMI METAR and TAF weather

Enter ICAO airport designator
Station Type Date Time Source
LEPA METAR 2021/10/22 19:30 UTC NOAA

LEPA 221930Z 04007KT 9999 FEW020 18/13 Q1018 NOSIG


Station Type Date Time Source
LEPA Decoded METAR 2021/10/22 19:30 UTC NOAA

Palma De Mallorca / Son San Juan, Spain (LEPA) 39-33N 002-44E 8M
Oct 22, 2021 - 03:30 PM EDT / 2021.10.22 1930 UTC
Wind: from the NE (040 degrees) at 8 MPH (7 KT):0
Visibility: greater than 7 mile(s):0
Sky conditions: mostly clear
Temperature: 64 F (18 C)
Dew Point: 55 F (13 C)
Relative Humidity: 72%
Pressure (altimeter): 30.06 in. Hg (1018 hPa)
ob: LEPA 221930Z 04007KT 9999 FEW020 18/13 Q1018 NOSIG
cycle: 19

Station Type Date Time Source
LEPA TAF 2021/10/22 18:27 UTC NOAA

TAF LEPA 221700Z 2218/2318 04005KT 9999 FEW020 SCT030 TX21/2313Z TN11/2306Z
BECMG 2301/2303 04015KT
TEMPO 2303/2312 04015G25KT

Example: see airport list